createdAt,value
2018-02-19T00:09:28.970Z,48.1
2018-02-19T00:29:29.033Z,47.9
2018-02-19T00:59:29.064Z,46.4
2018-02-19T01:14:29.073Z,35.1
2018-02-19T01:49:29.096Z,27.9
2018-02-19T02:04:29.177Z,31.6
2018-02-19T02:24:29.106Z,26.8
2018-02-19T02:39:29.137Z,33.4
2018-02-19T02:54:29.209Z,29.5
2018-02-19T03:09:29.214Z,29.1
2018-02-19T03:29:29.196Z,24.1
2018-02-19T03:44:29.223Z,24.8
2018-02-19T03:59:29.235Z,31
2018-02-19T04:19:33.601Z,32
2018-02-19T04:34:33.799Z,28.1
2018-02-19T04:49:33.832Z,26.7
2018-02-19T05:04:33.821Z,27.7
2018-02-19T05:24:33.844Z,35.9
2018-02-19T05:39:33.826Z,40
2018-02-19T05:54:33.864Z,31
2018-02-19T06:09:33.924Z,36.2
2018-02-19T06:29:33.886Z,34.1
2018-02-19T06:44:33.892Z,37.8
2018-02-19T06:59:33.907Z,34.6
2018-02-19T07:19:34.205Z,31
2018-02-19T07:49:33.851Z,29.8
2018-02-19T08:04:33.925Z,20.2
2018-02-19T08:24:33.958Z,21.2
2018-02-19T08:39:33.969Z,31.3
2018-02-19T08:54:34.127Z,39.1
2018-02-19T09:14:34.137Z,27.7
2018-02-19T09:29:48.886Z,30.6
2018-02-19T09:44:43.576Z,29.7
2018-02-19T09:59:43.787Z,28.9
2018-02-19T10:19:43.587Z,36.1
2018-02-19T10:34:43.792Z,26
2018-02-19T10:49:43.831Z,32.4
2018-02-19T11:04:43.627Z,33.7
2018-02-19T11:24:43.656Z,33.9
2018-02-19T11:39:43.855Z,28.6
2018-02-19T11:54:43.936Z,31.5
2018-02-19T12:14:43.692Z,33.3
2018-02-19T12:44:43.871Z,38.5
2018-02-19T12:59:43.891Z,39.9
2018-02-19T13:19:43.710Z,42
2018-02-19T13:34:53.484Z,42.1
2018-02-19T13:49:54.935Z,45.9
2018-02-19T14:09:54.920Z,45.7
2018-02-19T14:25:01.796Z,51.5
2018-02-19T14:39:55.712Z,42.7
2018-02-19T14:54:55.662Z,45.3
2018-02-19T15:14:55.840Z,47.3
2018-02-19T15:29:55.711Z,51
2018-02-19T15:44:55.725Z,48.5
2018-02-19T15:59:55.726Z,47.4
2018-02-19T16:19:55.754Z,52.5
2018-02-19T16:49:55.878Z,52.7
2018-02-19T17:09:55.757Z,42.5
2018-02-19T17:24:56.104Z,49.3
2018-02-19T17:39:55.929Z,46.7
2018-02-19T17:54:55.911Z,39.9
2018-02-19T18:14:55.951Z,40.3
2018-02-19T18:29:55.952Z,40.9
2018-02-19T18:44:55.947Z,37.3
2018-02-19T19:04:55.813Z,36
2018-02-19T19:19:55.834Z,40
2018-02-19T19:35:01.032Z,40.4
2018-02-19T19:50:00.777Z,40.3
2018-02-19T20:10:00.911Z,35.3
2018-02-19T20:25:00.899Z,36.2
2018-02-19T20:40:00.904Z,38.9
2018-02-19T21:00:00.794Z,32.1
2018-02-19T21:15:00.847Z,38.7
2018-02-19T21:30:00.875Z,35
2018-02-19T21:45:00.771Z,35.3
2018-02-19T22:05:00.822Z,36.1
2018-02-19T22:20:00.812Z,40.4
2018-02-19T22:35:00.955Z,31.3
2018-02-19T22:55:00.943Z,37.5
2018-02-19T23:10:02.046Z,35.2
2018-02-19T23:25:00.857Z,33.6
2018-02-19T23:40:00.971Z,39.4
